Time;durP1;ratioP1;P1;durP2;ratioP2;P2;SDS_P1;SDS_P2;PMS_P1;PMS_P2;Temp;Humidity;BMP_temperature;BMP_pressure;BME280_temperature;BME280_humidity;BME280_pressure;Samples;Min_cycle;Max_cycle;Signal;HPM_P1;HPM_P2
2022/10/24 00:01:44;;;;;;;9.00;2.50;;;;;;;22.80;100.00;96379.19;5120077;27;20471;-43
2022/10/24 00:04:12;;;;;;;7.75;2.67;;;;;;;23.13;100.00;96383.41;5119220;27;20090;-46
2022/10/24 00:06:41;;;;;;;11.48;2.97;;;;;;;23.11;100.00;96393.56;5113306;27;20552;-43
2022/10/24 00:09:09;;;;;;;11.63;2.80;;;;;;;22.83;100.00;96392.19;5121702;27;20075;-44
2022/10/24 00:11:38;;;;;;;7.53;2.80;;;;;;;22.63;100.00;96389.69;5119354;27;20075;-42
2022/10/24 00:14:06;;;;;;;14.38;2.70;;;;;;;22.62;100.00;96387.25;5113510;27;20082;-43
2022/10/24 00:16:36;;;;;;;8.82;2.42;;;;;;;22.34;100.00;96393.09;5119835;27;20725;-43
2022/10/24 00:19:04;;;;;;;9.90;2.87;;;;;;;23.13;100.00;96396.88;5116381;27;20090;-44
2022/10/24 00:21:32;;;;;;;8.07;2.30;;;;;;;22.83;100.00;96394.88;5115135;27;20512;-44
2022/10/24 00:24:01;;;;;;;13.80;2.47;;;;;;;22.98;100.00;96389.16;5120861;27;20075;-46
2022/10/24 00:26:29;;;;;;;7.75;2.47;;;;;;;23.13;100.00;96397.69;5114682;27;20075;-44
2022/10/24 00:28:58;;;;;;;7.32;2.25;;;;;;;22.74;100.00;96405.09;5124310;27;20072;-46
2022/10/24 00:31:32;;;;;;;12.43;2.78;;;;;;;22.85;100.00;96390.13;5117557;27;20702;-44
2022/10/24 00:34:02;;;;;;;11.68;2.67;;;;;;;22.81;100.00;96399.66;5112441;27;20093;-47
2022/10/24 00:36:31;;;;;;;14.73;2.60;;;;;;;22.92;100.00;96403.50;5119529;27;20086;-44
2022/10/24 00:38:59;;;;;;;9.70;2.50;;;;;;;22.94;100.00;96404.91;5121103;27;20463;-44
2022/10/24 00:41:32;;;;;;;10.07;2.40;;;;;;;22.73;100.00;96416.91;5121437;27;20079;-43
2022/10/24 00:44:14;;;;;;;12.27;2.40;;;;;;;22.73;100.00;96441.09;5123120;27;20085;-47
2022/10/24 00:46:44;;;;;;;6.40;1.98;;;;;;;22.20;100.00;96449.63;5113549;27;20093;-43
2022/10/24 00:49:16;;;;;;;7.22;1.70;;;;;;;22.13;100.00;96458.75;5114047;27;20082;-45
2022/10/24 00:51:47;;;;;;;5.88;1.85;;;;;;;21.53;100.00;96465.25;5130790;27;20079;-43
2022/10/24 00:54:15;;;;;;;;;;;;;;;22.05;100.00;96468.69;5120751;27;20090;-47
2022/10/24 00:56:47;;;;;;;8.80;2.35;;;;;;;21.44;100.00;96449.63;5116255;27;20355;-48
2022/10/24 00:59:18;;;;;;;6.70;1.92;;;;;;;22.23;100.00;96429.56;5118123;27;20082;-45
2022/10/24 01:01:46;;;;;;;;;;;;;;;22.26;100.00;96415.66;5112553;27;20082;-41
2022/10/24 01:04:16;;;;;;;6.40;1.90;;;;;;;21.43;100.00;96419.28;5116087;27;19954;-46
2022/10/24 01:06:47;;;;;;;8.10;1.98;;;;;;;21.43;100.00;96416.59;5121659;27;20085;-46
2022/10/24 01:09:28;;;;;;;8.15;1.67;;;;;;;22.08;100.00;96424.47;5125945;27;20035;-48
2022/10/24 01:12:04;;;;;;;6.40;1.83;;;;;;;21.93;100.00;96402.50;5125194;27;20528;-43
2022/10/24 01:14:42;;;;;;;6.13;1.73;;;;;;;22.17;100.00;96387.47;5118738;27;20079;-46
2022/10/24 01:17:16;;;;;;;10.77;1.70;;;;;;;22.12;100.00;96377.31;5113865;27;20482;-48
2022/10/24 01:20:12;;;;;;;6.45;1.73;;;;;;;21.94;100.00;96391.50;5112029;27;20098;-45
2022/10/24 01:22:51;;;;;;;7.75;2.10;;;;;;;21.39;100.00;96393.94;5112069;27;20083;-43
2022/10/24 01:25:26;;;;;;;6.95;1.42;;;;;;;21.72;100.00;96385.69;5118591;27;20597;-43
2022/10/24 01:28:01;;;;;;;9.02;1.30;;;;;;;22.16;100.00;96367.84;5111426;27;20110;-42
2022/10/24 01:30:35;;;;;;;7.22;1.55;;;;;;;22.44;100.00;96374.63;5115399;27;20090;-44
2022/10/24 01:33:06;;;;;;;5.20;1.50;;;;;;;22.53;100.00;96370.56;5111546;27;20086;-47
2022/10/24 01:35:39;;;;;;;9.18;1.70;;;;;;;22.32;100.00;96365.63;5123780;27;20446;-44
2022/10/24 01:38:14;;;;;;;6.03;1.90;;;;;;;22.29;100.00;96383.00;5116633;27;20093;-42
2022/10/24 01:40:49;;;;;;;11.23;1.48;;;;;;;22.07;100.00;96369.13;5117870;27;20083;-43
2022/10/24 01:43:19;;;;;;;8.07;1.92;;;;;;;22.37;100.00;96345.13;5118183;27;20087;-46
2022/10/24 01:45:53;;;;;;;10.15;2.00;;;;;;;21.89;100.00;96328.78;5115382;27;20079;-49
2022/10/24 01:48:24;;;;;;;6.78;1.60;;;;;;;20.49;100.00;96307.22;5117481;27;20090;-45
2022/10/24 01:50:54;;;;;;;8.73;1.77;;;;;;;20.61;100.00;96305.53;5117181;27;20101;-44
2022/10/24 01:53:24;;;;;;;8.75;1.95;;;;;;;21.89;100.00;96313.50;5112300;27;20087;-45
2022/10/24 01:55:53;;;;;;;9.50;1.80;;;;;;;21.49;100.00;96324.53;5125181;27;20087;-45
2022/10/24 01:58:22;;;;;;;8.52;1.75;;;;;;;21.95;100.00;96309.09;5131320;27;20462;-43
2022/10/24 02:00:54;;;;;;;4.60;1.60;;;;;;;21.83;100.00;96302.81;5122562;27;20107;-43
2022/10/24 02:03:25;;;;;;;7.38;1.80;;;;;;;21.72;100.00;96309.72;5114498;27;20517;-45
2022/10/24 02:05:56;;;;;;;9.68;1.55;;;;;;;21.62;100.00;96298.66;5118354;27;20091;-43
2022/10/24 02:08:29;;;;;;;8.48;1.92;;;;;;;21.36;100.00;96289.72;5114405;27;20067;-44
2022/10/24 02:10:59;;;;;;;7.13;1.60;;;;;;;21.86;100.00;96297.00;5111020;28;20098;-42
2022/10/24 02:13:30;;;;;;;6.47;1.23;;;;;;;21.73;100.00;96292.56;5113909;27;20075;-42
2022/10/24 02:16:00;;;;;;;8.00;1.60;;;;;;;22.08;100.00;96286.69;5130414;27;20540;-43
2022/10/24 02:18:29;;;;;;;7.70;1.90;;;;;;;22.08;100.00;96271.38;5112669;28;20076;-45
2022/10/24 02:21:06;;;;;;;9.30;1.55;;;;;;;21.99;100.00;96259.31;5116414;27;20086;-47
2022/10/24 02:23:37;;;;;;;7.47;1.60;;;;;;;21.90;100.00;96250.69;5111234;27;20067;-43
2022/10/24 02:26:08;;;;;;;7.47;1.67;;;;;;;21.83;100.00;96233.84;5120732;27;20082;-45
2022/10/24 02:28:42;;;;;;;10.45;1.80;;;;;;;22.33;100.00;96208.75;5115170;27;20098;-48
2022/10/24 02:31:16;;;;;;;6.43;1.40;;;;;;;21.98;100.00;96209.31;5116302;27;20071;-48
2022/10/24 02:33:45;;;;;;;9.48;1.48;;;;;;;21.92;100.00;96204.81;5120331;27;20086;-44
2022/10/24 02:36:16;;;;;;;8.48;1.80;;;;;;;22.54;100.00;96200.25;5116506;27;20094;-41
2022/10/24 02:38:46;;;;;;;8.18;1.60;;;;;;;22.40;100.00;96196.06;5113565;27;20545;-43
2022/10/24 02:41:19;;;;;;;9.38;1.95;;;;;;;22.57;100.00;96196.25;5121895;27;20086;-41
2022/10/24 02:43:49;;;;;;;6.55;1.50;;;;;;;22.87;100.00;96188.19;5120611;27;20083;-48
2022/10/24 02:46:20;;;;;;;6.82;1.48;;;;;;;22.91;100.00;96187.50;5114621;27;20066;-44
2022/10/24 02:48:51;;;;;;;7.03;1.70;;;;;;;22.51;100.00;96204.19;5119102;27;20090;-48
2022/10/24 02:51:21;;;;;;;5.95;1.35;;;;;;;22.63;100.00;96204.22;5126616;27;20105;-47
2022/10/24 02:53:50;;;;;;;7.78;1.42;;;;;;;22.45;100.00;96193.53;5119101;27;20086;-43
2022/10/24 02:56:18;;;;;;;12.35;2.38;;;;;;;22.16;100.00;96197.78;5116414;27;20522;-46
2022/10/24 02:58:47;;;;;;;4.10;1.58;;;;;;;22.04;100.00;96206.56;5118455;27;20071;-45
2022/10/24 03:01:15;;;;;;;5.78;1.50;;;;;;;21.87;100.00;96210.03;5123528;27;20082;-44
2022/10/24 03:03:45;;;;;;;4.72;1.50;;;;;;;22.26;100.00;96203.44;5120502;27;20093;-48
2022/10/24 03:06:13;;;;;;;9.23;1.70;;;;;;;22.59;100.00;96210.31;5119744;27;20438;-45
2022/10/24 03:08:41;;;;;;;7.45;1.60;;;;;;;22.44;100.00;96210.69;5124447;27;20549;-43
2022/10/24 03:11:10;;;;;;;7.00;1.83;;;;;;;21.80;100.00;96227.03;5115559;27;20079;-43
2022/10/24 03:13:38;;;;;;;8.32;1.42;;;;;;;22.10;100.00;96226.34;5115580;27;20079;-43
2022/10/24 03:16:07;;;;;;;4.28;1.33;;;;;;;22.34;100.00;96221.97;5119141;27;20090;-44
2022/10/24 03:18:41;;;;;;;4.88;1.33;;;;;;;22.36;100.00;96217.19;5116475;27;20113;-43
2022/10/24 03:21:10;;;;;;;6.40;1.20;;;;;;;22.12;100.00;96210.81;5122449;27;20735;-47
2022/10/24 03:23:39;;;;;;;4.07;1.10;;;;;;;22.02;100.00;96216.72;5114041;27;20145;-46
2022/10/24 03:26:07;;;;;;;5.53;1.27;;;;;;;22.88;100.00;96212.19;5113142;27;20078;-43
2022/10/24 03:28:35;;;;;;;5.47;1.40;;;;;;;23.26;100.00;96208.31;5117898;27;20078;-43
2022/10/24 03:31:04;;;;;;;6.05;1.42;;;;;;;22.40;100.00;96207.66;5120980;27;20545;-46
2022/10/24 03:33:32;;;;;;;5.05;1.20;;;;;;;22.79;100.00;96218.94;5116583;27;20520;-45
2022/10/24 03:36:01;;;;;;;2.80;1.00;;;;;;;22.34;100.00;96229.22;5115418;28;20086;-44
2022/10/24 03:38:30;;;;;;;6.50;1.58;;;;;;;22.61;100.00;96227.84;5113415;28;21619;-43
2022/10/24 03:40:59;;;;;;;5.23;1.20;;;;;;;22.77;100.00;96239.00;5118599;28;20083;-47
2022/10/24 03:43:27;;;;;;;6.22;1.23;;;;;;;22.43;100.00;96239.41;5121107;28;20160;-43
2022/10/24 03:45:55;;;;;;;7.95;1.42;;;;;;;21.97;100.00;96234.53;5115456;28;20456;-44
2022/10/24 03:48:23;;;;;;;6.03;1.30;;;;;;;22.87;100.00;96237.41;5117390;28;20814;-43
2022/10/24 03:50:52;;;;;;;5.65;1.15;;;;;;;22.15;100.00;96245.31;5117647;28;20082;-42
2022/10/24 03:53:20;;;;;;;6.55;1.45;;;;;;;23.06;100.00;96248.19;5120288;28;20093;-46
2022/10/24 03:55:49;;;;;;;6.93;1.52;;;;;;;22.52;100.00;96250.69;5111529;28;20083;-46
2022/10/24 03:58:18;;;;;;;6.97;1.20;;;;;;;22.82;100.00;96250.75;5119928;28;20081;-46
2022/10/24 04:00:46;;;;;;;5.10;1.80;;;;;;;23.24;100.00;96245.44;5111799;28;20083;-43
2022/10/24 04:03:14;;;;;;;4.57;1.27;;;;;;;23.28;100.00;96243.09;5118216;28;20101;-43
2022/10/24 04:05:42;;;;;;;4.00;1.30;;;;;;;23.41;100.00;96235.63;5121267;28;20082;-44
2022/10/24 04:08:11;;;;;;;8.70;1.50;;;;;;;23.43;100.00;96244.31;5115880;28;20076;-45
2022/10/24 04:10:39;;;;;;;5.10;1.33;;;;;;;23.48;100.00;96251.69;5119334;28;20474;-42
2022/10/24 04:13:09;;;;;;;6.85;1.60;;;;;;;23.55;100.00;96248.88;5118055;28;20096;-42
2022/10/24 04:15:37;;;;;;;6.88;1.63;;;;;;;23.62;100.00;96263.88;5119795;28;20063;-42
2022/10/24 04:18:07;;;;;;;4.70;1.30;;;;;;;23.27;100.00;96277.25;5117600;28;20529;-40
2022/10/24 04:20:35;;;;;;;5.32;1.67;;;;;;;23.01;100.00;96283.00;5120293;28;20070;-42
2022/10/24 04:23:03;;;;;;;5.70;1.17;;;;;;;22.75;100.00;96279.59;5117210;28;20071;-44
2022/10/24 04:25:32;;;;;;;5.40;1.35;;;;;;;23.04;100.00;96279.84;5112266;28;20094;-43
2022/10/24 04:28:00;;;;;;;5.70;1.50;;;;;;;23.12;100.00;96277.66;5118302;28;20445;-42
2022/10/24 04:30:30;;;;;;;5.40;1.35;;;;;;;22.59;100.00;96275.63;5114765;28;20069;-43
2022/10/24 04:32:58;;;;;;;9.18;1.40;;;;;;;22.27;100.00;96267.72;5112847;28;20071;-44
2022/10/24 04:35:26;;;;;;;4.07;1.13;;;;;;;21.81;100.00;96271.63;5111790;28;20094;-44
2022/10/24 04:37:55;;;;;;;6.72;1.58;;;;;;;22.86;100.00;96275.31;5112484;28;20087;-44
2022/10/24 04:40:23;;;;;;;6.95;1.30;;;;;;;22.83;100.00;96273.88;5109855;28;20079;-47
2022/10/24 04:42:51;;;;;;;6.22;1.67;;;;;;;23.11;100.00;96286.78;5118503;27;20083;-48
2022/10/24 04:45:20;;;;;;;5.10;1.30;;;;;;;22.05;100.00;96291.44;5126668;27;20081;-47
2022/10/24 04:47:49;;;;;;;5.47;1.30;;;;;;;21.37;100.00;96286.03;5113302;27;20094;-47
2022/10/24 04:50:18;;;;;;;8.43;1.87;;;;;;;22.72;100.00;96277.34;5117423;27;20075;-44
2022/10/24 04:52:46;;;;;;;6.57;1.42;;;;;;;22.39;100.00;96275.03;5118913;27;20488;-43
2022/10/24 04:55:14;;;;;;;5.70;1.48;;;;;;;22.92;100.00;96269.03;5130274;27;20086;-42
2022/10/24 04:57:42;;;;;;;7.55;1.77;;;;;;;22.16;100.00;96259.56;5111985;28;20548;-47
2022/10/24 05:00:12;;;;;;;4.57;1.33;;;;;;;22.63;100.00;96260.69;5118956;27;20082;-44
2022/10/24 05:02:40;;;;;;;4.90;1.48;;;;;;;22.84;100.00;96270.13;5120417;27;20090;-43
2022/10/24 05:05:10;;;;;;;5.43;1.30;;;;;;;22.16;100.00;96278.34;5117085;27;20097;-50
2022/10/24 05:07:38;;;;;;;8.75;1.88;;;;;;;22.30;100.00;96274.50;5113741;27;20099;-46
2022/10/24 05:10:08;;;;;;;7.18;1.65;;;;;;;22.84;100.00;96278.19;5123245;27;20090;-44
2022/10/24 05:12:36;;;;;;;5.03;1.73;;;;;;;21.88;100.00;96287.66;5111912;27;20098;-43
2022/10/24 05:15:06;;;;;;;9.05;1.63;;;;;;;22.27;100.00;96283.84;5118711;27;20206;-45
2022/10/24 05:17:34;;;;;;;4.90;1.67;;;;;;;23.03;100.00;96278.22;5120635;27;20090;-43
2022/10/24 05:20:04;;;;;;;5.57;1.70;;;;;;;22.97;100.00;96272.69;5121294;27;20083;-43
2022/10/24 05:22:34;;;;;;;6.70;1.87;;;;;;;22.95;100.00;96274.81;5122331;27;20490;-48
2022/10/24 05:25:02;;;;;;;5.73;1.40;;;;;;;22.95;100.00;96280.19;5131626;27;20083;-46
2022/10/24 05:27:31;;;;;;;4.25;1.52;;;;;;;22.47;100.00;96280.09;5121947;27;20071;-46
2022/10/24 05:30:00;;;;;;;3.58;1.30;;;;;;;23.11;100.00;96280.59;5114093;27;20479;-45
2022/10/24 05:32:28;;;;;;;8.65;1.98;;;;;;;22.14;100.00;96286.63;5117628;27;20071;-43
2022/10/24 05:35:05;;;;;;;6.43;1.52;;;;;;;22.87;100.00;96279.63;5115122;27;20089;-43
2022/10/24 05:37:35;;;;;;;6.13;1.48;;;;;;;22.76;100.00;96294.66;5115542;27;20083;-48
2022/10/24 05:40:04;;;;;;;6.20;1.70;;;;;;;22.49;100.00;96289.56;5117933;27;20083;-44
2022/10/24 05:42:32;;;;;;;120.65;72.55;;;;;;;22.60;100.00;96292.56;5117906;27;20525;-44
2022/10/24 05:45:00;;;;;;;118.50;79.72;;;;;;;22.65;100.00;96288.16;5111072;27;20083;-46
2022/10/24 05:47:29;;;;;;;100.88;70.38;;;;;;;22.87;100.00;96288.50;5121828;27;20085;-49
2022/10/24 05:49:57;;;;;;;12.15;7.40;;;;;;;21.85;100.00;96298.88;5117748;27;20110;-42
2022/10/24 05:52:25;;;;;;;13.73;7.95;;;;;;;22.81;100.00;96302.84;5112595;27;20087;-43
2022/10/24 05:54:55;;;;;;;10.05;4.53;;;;;;;22.43;100.00;96311.97;5123289;27;20302;-46
2022/10/24 05:57:34;;;;;;;4.80;1.77;;;;;;;22.43;100.00;96313.84;5116975;27;20086;-47
2022/10/24 06:00:03;;;;;;;5.05;1.42;;;;;;;22.14;100.00;96334.97;5117749;27;20477;-44
2022/10/24 06:02:32;;;;;;;9.02;1.73;;;;;;;22.90;100.00;96324.88;5111271;27;20525;-44
2022/10/24 06:05:00;;;;;;;6.15;1.50;;;;;;;22.86;100.00;96340.66;5125220;27;20076;-51
2022/10/24 06:07:29;;;;;;;8.50;1.67;;;;;;;22.50;100.00;96342.31;5115690;27;20091;-47
2022/10/24 06:09:58;;;;;;;5.63;1.65;;;;;;;21.76;100.00;96359.25;5116869;27;20561;-46
2022/10/24 06:12:27;;;;;;;7.87;2.00;;;;;;;22.12;100.00;96352.34;5110672;27;20118;-47
2022/10/24 06:14:56;;;;;;;6.57;2.50;;;;;;;23.06;100.00;96356.59;5110485;27;20083;-47
2022/10/24 06:17:24;;;;;;;5.85;1.83;;;;;;;22.89;100.00;96352.84;5112921;27;20172;-42
2022/10/24 06:19:52;;;;;;;7.25;2.17;;;;;;;23.26;100.00;96348.25;5110571;27;20083;-42
2022/10/24 06:22:22;;;;;;;7.13;1.50;;;;;;;22.79;100.00;96345.28;5116847;27;20098;-44
2022/10/24 06:24:51;;;;;;;;;;;;;;;23.29;100.00;96342.41;5117591;27;20082;-44
2022/10/24 06:27:20;;;;;;;9.32;2.08;;;;;;;23.37;100.00;96346.69;5112390;27;19967;-42
2022/10/24 06:29:49;;;;;;;8.82;2.08;;;;;;;23.54;100.00;96352.25;5120868;27;20097;-41
2022/10/24 06:32:17;;;;;;;7.10;2.08;;;;;;;23.68;100.00;96348.31;5112473;27;20085;-43
2022/10/24 06:34:46;;;;;;;5.15;2.10;;;;;;;23.77;100.00;96346.94;5122893;27;20083;-44
2022/10/24 06:37:14;;;;;;;5.90;1.83;;;;;;;23.79;100.00;96349.41;5119879;27;20095;-47
2022/10/24 06:39:42;;;;;;;9.73;2.25;;;;;;;23.82;100.00;96344.38;5113895;27;20091;-48
2022/10/24 06:42:11;;;;;;;7.93;2.38;;;;;;;23.90;100.00;96345.91;5111368;27;20087;-46
2022/10/24 06:44:40;;;;;;;8.27;2.22;;;;;;;23.05;100.00;96351.41;5119946;27;20514;-44
2022/10/24 06:47:09;;;;;;;8.60;2.30;;;;;;;23.85;100.00;96352.00;5114789;27;20688;-45
2022/10/24 06:49:37;;;;;;;8.02;2.28;;;;;;;24.08;100.00;96345.00;5114943;27;20079;-45
2022/10/24 06:52:06;;;;;;;8.95;2.35;;;;;;;24.20;100.00;96332.38;5110798;27;20094;-46
2022/10/24 06:54:35;;;;;;;4.55;1.70;;;;;;;24.15;100.00;96327.66;5110801;27;20075;-41
2022/10/24 06:57:03;;;;;;;7.45;2.30;;;;;;;24.25;100.00;96331.66;5114713;27;20089;-52
2022/10/24 06:59:32;;;;;;;7.90;1.73;;;;;;;23.96;100.00;96325.31;5118857;27;20094;-49
2022/10/24 07:02:01;;;;;;;7.25;1.90;;;;;;;23.95;100.00;96324.50;5117424;27;20075;-45
2022/10/24 07:04:33;;;;;;;10.18;1.90;;;;;;;24.39;100.00;96330.34;5115814;27;20083;-46
2022/10/24 07:07:01;;;;;;;7.55;1.95;;;;;;;23.80;100.00;96316.84;5116277;27;20514;-45
2022/10/24 07:09:29;;;;;;;6.93;1.73;;;;;;;22.41;100.00;96314.06;5111138;27;20086;-42
2022/10/24 07:11:58;;;;;;;6.72;2.10;;;;;;;22.78;100.00;96327.53;5114291;27;20082;-44
2022/10/24 07:14:27;;;;;;;7.25;1.95;;;;;;;22.48;100.00;96314.00;5127556;27;20078;-45
2022/10/24 07:16:55;;;;;;;8.25;2.30;;;;;;;22.54;100.00;96317.66;5118903;27;20079;-45
2022/10/24 07:19:25;;;;;;;7.65;2.13;;;;;;;23.66;100.00;96331.53;5108773;28;20091;-44
2022/10/24 07:21:53;;;;;;;7.40;2.42;;;;;;;23.75;100.00;96334.78;5114889;27;20082;-49
2022/10/24 07:24:21;;;;;;;6.13;1.67;;;;;;;23.75;100.00;96332.06;5109922;28;20075;-45
2022/10/24 07:26:50;;;;;;;9.25;2.42;;;;;;;22.45;100.00;96317.13;5122077;27;20087;-45
2022/10/24 07:29:18;;;;;;;14.25;4.13;;;;;;;23.19;100.00;96323.28;5117729;27;20084;-45
2022/10/24 07:31:47;;;;;;;11.63;2.55;;;;;;;23.81;100.00;96318.50;5111189;28;20074;-45
2022/10/24 07:34:16;;;;;;;7.38;2.03;;;;;;;24.07;100.00;96332.59;5120925;28;20067;-46
2022/10/24 07:36:46;;;;;;;5.95;1.77;;;;;;;24.23;100.00;96339.97;5116403;28;20078;-42
2022/10/24 07:39:14;;;;;;;6.50;1.87;;;;;;;24.12;100.00;96335.38;5115626;28;20531;-43
2022/10/24 07:41:43;;;;;;;5.80;1.92;;;;;;;23.91;100.00;96340.28;5122401;28;20484;-44
2022/10/24 07:44:11;;;;;;;6.47;2.10;;;;;;;24.27;100.00;96332.25;5117809;28;20066;-42
2022/10/24 07:46:41;;;;;;;7.78;2.08;;;;;;;24.00;100.00;96342.66;5122812;28;20090;-43
2022/10/24 07:49:09;;;;;;;7.93;1.83;;;;;;;23.67;100.00;96343.94;5109506;28;20066;-44
2022/10/24 07:51:38;;;;;;;4.22;1.38;;;;;;;23.70;100.00;96343.50;5116107;28;20069;-44
2022/10/24 07:54:07;;;;;;;6.43;2.00;;;;;;;23.73;100.00;96347.63;5116314;28;20063;-42
2022/10/24 07:56:36;;;;;;;8.32;1.98;;;;;;;23.35;100.00;96344.19;5116601;28;20059;-42
2022/10/24 07:59:04;;;;;;;7.30;1.90;;;;;;;23.35;100.00;96341.50;5115080;28;20079;-44
2022/10/24 08:01:36;;;;;;;6.78;1.85;;;;;;;23.85;100.00;96354.69;5115618;28;20079;-42
2022/10/24 08:04:05;;;;;;;7.40;1.95;;;;;;;23.61;100.00;96351.09;5109040;28;20456;-43
2022/10/24 08:06:33;;;;;;;6.57;1.90;;;;;;;24.05;100.00;96348.16;5109007;28;20113;-44
2022/10/24 08:09:01;;;;;;;5.03;1.52;;;;;;;24.03;100.00;96353.78;5116226;28;20557;-48
2022/10/24 08:11:31;;;;;;;3.50;1.60;;;;;;;23.81;100.00;96366.13;5117227;28;20074;-48
2022/10/24 08:14:01;;;;;;;7.10;1.98;;;;;;;23.86;100.00;96364.41;5122744;27;20465;-46
2022/10/24 08:16:29;;;;;;;6.97;1.65;;;;;;;24.11;100.00;96361.50;5119645;27;20083;-43
2022/10/24 08:18:58;;;;;;;4.45;1.67;;;;;;;23.54;100.00;96363.81;5113247;27;20075;-45
2022/10/24 08:21:26;;;;;;;4.68;1.77;;;;;;;23.40;100.00;96365.88;5113155;27;20060;-44
2022/10/24 08:23:55;;;;;;;7.15;2.15;;;;;;;23.54;100.00;96363.81;5112986;27;20461;-44
2022/10/24 08:26:25;;;;;;;7.00;1.50;;;;;;;23.75;100.00;96367.09;5126941;27;20619;-49
2022/10/24 08:28:56;;;;;;;4.63;1.80;;;;;;;24.22;100.00;96359.88;5112629;28;20090;-48
2022/10/24 08:31:25;;;;;;;9.50;1.67;;;;;;;24.59;100.00;96367.78;5121025;27;20487;-44
2022/10/24 08:33:55;;;;;;;6.15;1.70;;;;;;;24.58;100.00;96366.16;5118036;27;20083;-50
2022/10/24 08:36:25;;;;;;;5.53;1.80;;;;;;;24.67;100.00;96358.50;5102636;27;20067;-43
2022/10/24 08:38:53;;;;;;;8.20;2.13;;;;;;;24.26;100.00;96353.00;5121683;27;20135;-49
2022/10/24 08:41:27;;;;;;;6.25;1.48;;;;;;;24.72;100.00;96353.22;5126155;27;20047;-48
2022/10/24 08:43:58;;;;;;;6.93;1.75;;;;;;;25.04;100.00;96337.44;5119106;27;20071;-46
2022/10/24 08:46:39;;;;;;;4.63;1.58;;;;;;;25.13;100.00;96332.53;5112526;27;20078;-46
2022/10/24 08:49:10;;;;;;;;;;;;;;;25.37;100.00;96334.06;5114142;27;20175;-45
2022/10/24 08:51:42;;;;;;;4.65;1.60;;;;;;;25.31;100.00;96329.63;5102089;28;19963;-47
2022/10/24 08:54:14;;;;;;;8.23;1.65;;;;;;;24.82;100.00;96340.78;5115767;27;20067;-43
2022/10/24 08:56:42;;;;;;;6.55;1.60;;;;;;;25.12;100.00;96342.50;5125836;27;20069;-45
2022/10/24 08:59:12;;;;;;;6.10;1.70;;;;;;;25.19;100.00;96337.78;5121631;27;20429;-44
2022/10/24 09:01:44;;;;;;;6.22;1.60;;;;;;;24.97;100.00;96347.53;5111899;27;20514;-46
2022/10/24 09:04:16;;;;;;;5.15;1.63;;;;;;;24.72;100.00;96353.22;5103603;27;20438;-46
2022/10/24 09:06:46;;;;;;;2.80;1.30;;;;;;;24.96;100.00;96357.53;5121725;27;20184;-45
2022/10/24 09:09:19;;;;;;;5.60;1.75;;;;;;;24.76;100.00;96368.69;5115493;27;20075;-47
2022/10/24 09:11:52;;;;;;;7.13;1.65;;;;;;;24.21;100.00;96368.22;5112014;27;20083;-50
2022/10/24 09:14:23;;;;;;;5.72;1.70;;;;;;;24.17;100.00;96351.69;5112020;27;20147;-43
2022/10/24 09:16:53;;;;;;;7.20;1.98;;;;;;;24.92;100.00;96360.94;5125485;27;20098;-46
2022/10/24 09:19:23;;;;;;;6.65;1.80;;;;;;;24.17;100.00;96371.38;5125340;27;20542;-46
2022/10/24 09:21:53;;;;;;;6.67;1.73;;;;;;;24.73;100.00;96371.03;5118754;27;20545;-48
2022/10/24 09:24:32;;;;;;;3.10;1.58;;;;;;;24.65;100.00;96368.72;5123172;27;20499;-43
2022/10/24 09:27:03;;;;;;;9.02;2.15;;;;;;;24.36;100.00;96373.94;5122696;27;20521;-47
2022/10/24 09:29:33;;;;;;;5.00;2.10;;;;;;;24.36;100.00;96382.88;5119907;27;20086;-46
2022/10/24 09:32:02;;;;;;;6.38;1.77;;;;;;;23.14;100.00;96372.41;5125918;27;20091;-44
2022/10/24 09:34:30;;;;;;;6.63;1.80;;;;;;;24.62;100.00;96372.69;5112279;27;20093;-46
2022/10/24 09:36:59;;;;;;;8.43;1.80;;;;;;;24.11;100.00;96372.28;5113479;27;20094;-46
2022/10/24 09:39:33;;;;;;;7.60;2.90;;;;;;;24.20;100.00;96361.19;5118848;27;20094;-47
2022/10/24 09:42:01;;;;;;;7.22;3.13;;;;;;;24.85;100.00;96355.69;5118221;27;20521;-48
2022/10/24 09:44:34;;;;;;;8.48;3.17;;;;;;;24.71;100.00;96367.75;5111034;27;20091;-47
2022/10/24 09:47:04;;;;;;;6.70;2.30;;;;;;;24.52;100.00;96372.47;5111248;27;20082;-48
2022/10/24 09:49:35;;;;;;;7.40;2.50;;;;;;;24.57;100.00;96369.88;5117647;27;20470;-43
2022/10/24 09:52:08;;;;;;;5.70;2.00;;;;;;;24.60;100.00;96374.78;5116441;27;20083;-48
2022/10/24 09:54:37;;;;;;;7.85;3.03;;;;;;;24.03;100.00;96375.34;5123393;27;20450;-46
2022/10/24 09:57:11;;;;;;;10.85;2.88;;;;;;;24.14;100.00;96371.81;5111364;27;20548;-49
2022/10/24 09:59:43;;;;;;;5.80;2.78;;;;;;;23.65;100.00;96381.88;5117308;27;20083;-45
2022/10/24 10:02:25;;;;;;;7.40;3.08;;;;;;;24.37;100.00;96378.31;5118305;27;20534;-46
2022/10/24 10:05:18;;;;;;;7.63;2.13;;;;;;;24.07;100.00;96384.59;5125194;27;20326;-41
2022/10/24 10:07:48;;;;;;;8.38;2.03;;;;;;;24.56;100.00;96385.22;5125336;27;20093;-46
2022/10/24 10:10:27;;;;;;;;;;;;;;;24.17;100.00;96381.31;5125226;27;20083;-47
2022/10/24 10:13:02;;;;;;;9.02;1.80;;;;;;;24.23;100.00;96390.38;5118863;27;19962;-49
2022/10/24 10:15:34;;;;;;;6.90;2.05;;;;;;;24.43;100.00;96390.84;5121459;27;20071;-45
2022/10/24 10:18:06;;;;;;;11.40;2.28;;;;;;;23.74;100.00;96393.16;5112798;27;20079;-45
2022/10/24 10:20:39;;;;;;;8.23;1.90;;;;;;;23.82;100.00;96392.03;5119679;27;20544;-45
2022/10/24 10:23:23;;;;;;;6.10;2.00;;;;;;;23.73;100.00;96396.09;5119482;27;20086;-47
2022/10/24 10:26:02;;;;;;;6.78;1.83;;;;;;;24.27;100.00;96396.94;5110266;27;20074;-49
2022/10/24 10:28:35;;;;;;;7.40;1.80;;;;;;;23.83;100.00;96396.38;5118724;27;20075;-44
2022/10/24 10:31:05;;;;;;;6.13;1.90;;;;;;;24.00;100.00;96402.72;5114429;27;20083;-46
2022/10/24 10:33:38;;;;;;;11.85;2.63;;;;;;;24.19;100.00;96384.63;5119614;27;20124;-41
2022/10/24 10:36:12;;;;;;;6.18;1.88;;;;;;;23.62;100.00;96378.81;5116944;27;20074;-46
2022/10/24 10:38:50;;;;;;;7.50;2.10;;;;;;;24.56;100.00;96379.84;5119842;27;20097;-47
2022/10/24 10:41:41;;;;;;;5.82;2.10;;;;;;;23.86;100.00;96383.25;5124536;27;20086;-45
2022/10/24 10:44:23;;;;;;;7.15;2.13;;;;;;;24.55;100.00;96380.91;5121847;27;20517;-50
2022/10/24 10:47:00;;;;;;;8.00;1.80;;;;;;;24.27;100.00;96384.28;5116702;27;20544;-49
2022/10/24 10:49:31;;;;;;;10.13;2.17;;;;;;;24.44;100.00;96379.03;5111088;27;20105;-47
2022/10/24 10:52:05;;;;;;;6.10;1.83;;;;;;;24.70;100.00;96385.81;5116920;27;20087;-46
2022/10/24 10:54:47;;;;;;;4.93;2.00;;;;;;;24.13;100.00;96380.97;5123093;27;20102;-43
2022/10/24 10:57:20;;;;;;;5.80;2.00;;;;;;;24.31;100.00;96381.94;5114560;27;20093;-46
2022/10/24 10:59:55;;;;;;;6.70;1.58;;;;;;;24.10;100.00;96383.31;5118603;27;20086;-46
2022/10/24 11:02:38;;;;;;;7.53;2.10;;;;;;;23.63;100.00;96396.59;5118496;27;20082;-46
2022/10/24 11:05:20;;;;;;;7.78;1.88;;;;;;;23.72;100.00;96397.97;5110669;27;20477;-45
2022/10/24 11:07:54;;;;;;;7.70;2.05;;;;;;;23.81;100.00;96399.28;5110075;28;20079;-45
2022/10/24 11:10:25;;;;;;;6.68;2.28;;;;;;;23.65;100.00;96389.97;5117467;27;20081;-45
2022/10/24 11:12:55;;;;;;;7.78;2.20;;;;;;;23.79;100.00;96390.63;5123342;27;20172;-45
2022/10/24 11:15:27;;;;;;;6.38;1.95;;;;;;;23.31;100.00;96396.00;5128182;27;20085;-45
2022/10/24 11:18:00;;;;;;;7.40;1.80;;;;;;;23.30;100.00;96403.28;5119093;27;20442;-41
2022/10/24 11:20:32;;;;;;;7.97;1.95;;;;;;;23.59;100.00;96401.63;5094703;28;20061;-48
2022/10/24 11:23:05;;;;;;;6.22;1.92;;;;;;;23.30;100.00;96408.66;5115880;27;20074;-48
2022/10/24 11:25:37;;;;;;;9.80;2.20;;;;;;;23.55;100.00;96402.31;5116708;27;20083;-49
2022/10/24 11:28:08;;;;;;;9.52;2.05;;;;;;;23.14;100.00;96406.56;5118009;27;20101;-47
2022/10/24 11:30:45;;;;;;;8.88;1.90;;;;;;;22.26;100.00;96413.84;5121167;27;20567;-46
2022/10/24 11:33:18;;;;;;;5.35;2.05;;;;;;;23.45;100.00;96410.94;5123245;27;20755;-45
2022/10/24 11:36:01;;;;;;;5.95;2.00;;;;;;;22.69;100.00;96421.09;5109663;28;20083;-44
2022/10/24 11:38:30;;;;;;;5.13;1.80;;;;;;;22.33;100.00;96419.13;5119349;28;20075;-45
2022/10/24 11:41:24;;;;;;;9.40;1.95;;;;;;;22.44;100.00;96417.63;5119300;28;20157;-50